sensor_id;sensor_type;location;lat;lon;timestamp;P1;durP1;ratioP1;P2;durP2;ratioP2
23394;SDS011;11870;53.084;18.206;2023-02-03T00:01:01;10.25;;;3.90;;
23394;SDS011;11870;53.084;18.206;2023-02-03T00:03:32;8.38;;;3.65;;
23394;SDS011;11870;53.084;18.206;2023-02-03T00:05:59;6.97;;;3.40;;
23394;SDS011;11870;53.084;18.206;2023-02-03T00:08:26;7.05;;;3.40;;
23394;SDS011;11870;53.084;18.206;2023-02-03T00:10:52;7.55;;;3.53;;
23394;SDS011;11870;53.084;18.206;2023-02-03T00:13:19;14.55;;;3.90;;
23394;SDS011;11870;53.084;18.206;2023-02-03T00:15:45;7.93;;;3.35;;
23394;SDS011;11870;53.084;18.206;2023-02-03T00:18:11;6.18;;;3.20;;
23394;SDS011;11870;53.084;18.206;2023-02-03T00:20:38;7.50;;;3.70;;
23394;SDS011;11870;53.084;18.206;2023-02-03T00:23:05;7.55;;;3.72;;
23394;SDS011;11870;53.084;18.206;2023-02-03T00:25:32;10.43;;;4.00;;
23394;SDS011;11870;53.084;18.206;2023-02-03T00:27:58;12.02;;;4.05;;
23394;SDS011;11870;53.084;18.206;2023-02-03T00:30:25;9.88;;;3.83;;
23394;SDS011;11870;53.084;18.206;2023-02-03T00:32:51;8.80;;;3.42;;
23394;SDS011;11870;53.084;18.206;2023-02-03T00:35:18;8.65;;;3.78;;
23394;SDS011;11870;53.084;18.206;2023-02-03T00:37:49;8.27;;;3.40;;
23394;SDS011;11870;53.084;18.206;2023-02-03T00:40:16;9.07;;;3.22;;
23394;SDS011;11870;53.084;18.206;2023-02-03T00:42:43;6.63;;;3.20;;
23394;SDS011;11870;53.084;18.206;2023-02-03T00:45:09;10.18;;;3.28;;
23394;SDS011;11870;53.084;18.206;2023-02-03T00:47:35;7.85;;;3.47;;
23394;SDS011;11870;53.084;18.206;2023-02-03T00:50:02;8.70;;;3.63;;
23394;SDS011;11870;53.084;18.206;2023-02-03T00:52:28;9.07;;;3.28;;
23394;SDS011;11870;53.084;18.206;2023-02-03T00:54:55;11.20;;;4.18;;
23394;SDS011;11870;53.084;18.206;2023-02-03T00:57:21;9.20;;;3.50;;
23394;SDS011;11870;53.084;18.206;2023-02-03T00:59:47;10.82;;;3.88;;
23394;SDS011;11870;53.084;18.206;2023-02-03T01:02:13;7.97;;;3.58;;
23394;SDS011;11870;53.084;18.206;2023-02-03T01:04:41;7.15;;;3.20;;
23394;SDS011;11870;53.084;18.206;2023-02-03T01:07:08;8.98;;;3.83;;
23394;SDS011;11870;53.084;18.206;2023-02-03T01:09:35;10.93;;;4.05;;
23394;SDS011;11870;53.084;18.206;2023-02-03T01:12:02;7.88;;;3.70;;
23394;SDS011;11870;53.084;18.206;2023-02-03T01:14:29;9.75;;;3.80;;
23394;SDS011;11870;53.084;18.206;2023-02-03T01:16:55;12.13;;;4.10;;
23394;SDS011;11870;53.084;18.206;2023-02-03T01:19:21;8.85;;;3.92;;
23394;SDS011;11870;53.084;18.206;2023-02-03T01:21:48;8.60;;;4.30;;
23394;SDS011;11870;53.084;18.206;2023-02-03T01:24:14;9.00;;;3.70;;
23394;SDS011;11870;53.084;18.206;2023-02-03T01:26:40;9.93;;;3.85;;
23394;SDS011;11870;53.084;18.206;2023-02-03T01:29:07;9.57;;;3.97;;
23394;SDS011;11870;53.084;18.206;2023-02-03T01:31:35;12.48;;;4.63;;
23394;SDS011;11870;53.084;18.206;2023-02-03T01:34:04;10.25;;;3.88;;
23394;SDS011;11870;53.084;18.206;2023-02-03T01:36:32;8.68;;;3.50;;
23394;SDS011;11870;53.084;18.206;2023-02-03T01:38:59;9.40;;;3.33;;
23394;SDS011;11870;53.084;18.206;2023-02-03T01:41:27;9.40;;;3.85;;
23394;SDS011;11870;53.084;18.206;2023-02-03T01:43:56;8.48;;;4.13;;
23394;SDS011;11870;53.084;18.206;2023-02-03T01:49:03;7.53;;;3.78;;
23394;SDS011;11870;53.084;18.206;2023-02-03T01:51:37;17.60;;;6.20;;
23394;SDS011;11870;53.084;18.206;2023-02-03T01:54:07;15.18;;;5.15;;
23394;SDS011;11870;53.084;18.206;2023-02-03T01:56:38;10.70;;;3.95;;
23394;SDS011;11870;53.084;18.206;2023-02-03T01:59:07;15.00;;;4.57;;
23394;SDS011;11870;53.084;18.206;2023-02-03T02:01:33;11.18;;;4.22;;
23394;SDS011;11870;53.084;18.206;2023-02-03T02:04:01;12.60;;;4.40;;
23394;SDS011;11870;53.084;18.206;2023-02-03T02:06:28;11.32;;;4.05;;
23394;SDS011;11870;53.084;18.206;2023-02-03T02:08:55;11.52;;;4.00;;
23394;SDS011;11870;53.084;18.206;2023-02-03T02:11:25;9.88;;;3.15;;
23394;SDS011;11870;53.084;18.206;2023-02-03T02:13:52;11.02;;;4.05;;
23394;SDS011;11870;53.084;18.206;2023-02-03T02:16:23;9.75;;;4.20;;
23394;SDS011;11870;53.084;18.206;2023-02-03T02:19:14;17.08;;;4.55;;
23394;SDS011;11870;53.084;18.206;2023-02-03T02:22:05;23.00;;;7.38;;
23394;SDS011;11870;53.084;18.206;2023-02-03T02:30:42;18.52;;;6.13;;
23394;SDS011;11870;53.084;18.206;2023-02-03T02:33:17;11.13;;;3.92;;
23394;SDS011;11870;53.084;18.206;2023-02-03T02:40:50;18.00;;;6.60;;
23394;SDS011;11870;53.084;18.206;2023-02-03T02:43:43;20.20;;;7.93;;
23394;SDS011;11870;53.084;18.206;2023-02-03T02:46:22;17.63;;;6.72;;
23394;SDS011;11870;53.084;18.206;2023-02-03T02:49:05;11.57;;;5.10;;
23394;SDS011;11870;53.084;18.206;2023-02-03T02:51:39;16.65;;;4.68;;
23394;SDS011;11870;53.084;18.206;2023-02-03T02:54:09;14.13;;;4.68;;
23394;SDS011;11870;53.084;18.206;2023-02-03T02:56:40;14.50;;;5.25;;
23394;SDS011;11870;53.084;18.206;2023-02-03T02:59:08;10.52;;;4.47;;
23394;SDS011;11870;53.084;18.206;2023-02-03T03:01:35;11.38;;;4.55;;
23394;SDS011;11870;53.084;18.206;2023-02-03T03:04:04;12.20;;;4.65;;
23394;SDS011;11870;53.084;18.206;2023-02-03T03:06:33;12.85;;;4.72;;
23394;SDS011;11870;53.084;18.206;2023-02-03T03:09:09;11.95;;;5.35;;
23394;SDS011;11870;53.084;18.206;2023-02-03T03:11:44;12.27;;;5.18;;
23394;SDS011;11870;53.084;18.206;2023-02-03T03:14:14;12.35;;;5.03;;
23394;SDS011;11870;53.084;18.206;2023-02-03T03:16:45;12.77;;;5.20;;
23394;SDS011;11870;53.084;18.206;2023-02-03T03:19:17;13.57;;;5.38;;
23394;SDS011;11870;53.084;18.206;2023-02-03T03:21:52;13.13;;;6.22;;
23394;SDS011;11870;53.084;18.206;2023-02-03T03:24:22;11.65;;;5.25;;
23394;SDS011;11870;53.084;18.206;2023-02-03T03:31:46;12.02;;;5.00;;
23394;SDS011;11870;53.084;18.206;2023-02-03T03:34:13;16.17;;;6.00;;
23394;SDS011;11870;53.084;18.206;2023-02-03T03:36:45;16.63;;;5.88;;
23394;SDS011;11870;53.084;18.206;2023-02-03T03:39:28;9.63;;;4.70;;
23394;SDS011;11870;53.084;18.206;2023-02-03T03:42:09;13.45;;;5.90;;
23394;SDS011;11870;53.084;18.206;2023-02-03T03:45:14;10.40;;;4.97;;
23394;SDS011;11870;53.084;18.206;2023-02-03T03:48:00;23.30;;;6.07;;
23394;SDS011;11870;53.084;18.206;2023-02-03T03:50:42;12.15;;;5.13;;
23394;SDS011;11870;53.084;18.206;2023-02-03T03:53:21;14.20;;;6.13;;
23394;SDS011;11870;53.084;18.206;2023-02-03T03:55:50;15.25;;;5.90;;
23394;SDS011;11870;53.084;18.206;2023-02-03T03:58:22;16.17;;;6.30;;
23394;SDS011;11870;53.084;18.206;2023-02-03T04:00:51;18.20;;;5.97;;
23394;SDS011;11870;53.084;18.206;2023-02-03T04:03:21;17.65;;;6.35;;
23394;SDS011;11870;53.084;18.206;2023-02-03T04:05:49;15.55;;;7.28;;
23394;SDS011;11870;53.084;18.206;2023-02-03T04:08:16;16.98;;;6.53;;
23394;SDS011;11870;53.084;18.206;2023-02-03T04:10:42;27.15;;;8.27;;
23394;SDS011;11870;53.084;18.206;2023-02-03T04:13:10;22.05;;;8.30;;
23394;SDS011;11870;53.084;18.206;2023-02-03T04:15:37;17.33;;;7.32;;
23394;SDS011;11870;53.084;18.206;2023-02-03T04:18:03;20.02;;;8.15;;
23394;SDS011;11870;53.084;18.206;2023-02-03T04:20:30;15.77;;;6.35;;
23394;SDS011;11870;53.084;18.206;2023-02-03T04:22:57;16.98;;;6.45;;
23394;SDS011;11870;53.084;18.206;2023-02-03T04:25:23;15.07;;;6.45;;
23394;SDS011;11870;53.084;18.206;2023-02-03T04:27:50;15.63;;;6.47;;
23394;SDS011;11870;53.084;18.206;2023-02-03T04:30:16;15.13;;;6.25;;
23394;SDS011;11870;53.084;18.206;2023-02-03T04:32:43;13.05;;;5.90;;
23394;SDS011;11870;53.084;18.206;2023-02-03T04:35:10;13.27;;;6.38;;
23394;SDS011;11870;53.084;18.206;2023-02-03T04:37:36;15.68;;;5.90;;
23394;SDS011;11870;53.084;18.206;2023-02-03T04:40:02;13.00;;;5.53;;
23394;SDS011;11870;53.084;18.206;2023-02-03T04:42:29;11.35;;;5.55;;
23394;SDS011;11870;53.084;18.206;2023-02-03T04:44:55;12.60;;;5.45;;
23394;SDS011;11870;53.084;18.206;2023-02-03T04:47:22;14.25;;;5.72;;
23394;SDS011;11870;53.084;18.206;2023-02-03T04:49:48;11.55;;;5.28;;
23394;SDS011;11870;53.084;18.206;2023-02-03T04:52:14;15.00;;;5.20;;
23394;SDS011;11870;53.084;18.206;2023-02-03T04:54:41;15.95;;;5.55;;
23394;SDS011;11870;53.084;18.206;2023-02-03T04:57:07;14.32;;;4.95;;
23394;SDS011;11870;53.084;18.206;2023-02-03T04:59:33;13.15;;;5.68;;
23394;SDS011;11870;53.084;18.206;2023-02-03T05:02:03;12.13;;;5.32;;
23394;SDS011;11870;53.084;18.206;2023-02-03T05:04:30;12.23;;;5.85;;
23394;SDS011;11870;53.084;18.206;2023-02-03T05:06:56;12.65;;;5.65;;
23394;SDS011;11870;53.084;18.206;2023-02-03T05:09:25;15.20;;;5.57;;
23394;SDS011;11870;53.084;18.206;2023-02-03T05:11:52;14.40;;;5.90;;
23394;SDS011;11870;53.084;18.206;2023-02-03T05:14:18;8.70;;;4.70;;
23394;SDS011;11870;53.084;18.206;2023-02-03T05:16:45;15.52;;;5.65;;
23394;SDS011;11870;53.084;18.206;2023-02-03T05:19:11;13.77;;;5.70;;
23394;SDS011;11870;53.084;18.206;2023-02-03T05:21:37;15.27;;;5.93;;
23394;SDS011;11870;53.084;18.206;2023-02-03T05:24:04;19.77;;;6.45;;
23394;SDS011;11870;53.084;18.206;2023-02-03T05:26:33;12.40;;;5.57;;
23394;SDS011;11870;53.084;18.206;2023-02-03T05:28:59;14.52;;;5.80;;
23394;SDS011;11870;53.084;18.206;2023-02-03T05:31:26;14.07;;;5.40;;
23394;SDS011;11870;53.084;18.206;2023-02-03T05:33:52;11.43;;;5.43;;
23394;SDS011;11870;53.084;18.206;2023-02-03T05:36:19;12.00;;;4.85;;
23394;SDS011;11870;53.084;18.206;2023-02-03T05:38:48;13.40;;;5.32;;
23394;SDS011;11870;53.084;18.206;2023-02-03T05:41:15;11.00;;;4.85;;
23394;SDS011;11870;53.084;18.206;2023-02-03T05:43:59;14.00;;;5.55;;
23394;SDS011;11870;53.084;18.206;2023-02-03T05:46:26;12.57;;;5.40;;
23394;SDS011;11870;53.084;18.206;2023-02-03T05:48:52;10.43;;;4.85;;
23394;SDS011;11870;53.084;18.206;2023-02-03T05:51:18;11.18;;;5.03;;
23394;SDS011;11870;53.084;18.206;2023-02-03T05:53:45;10.82;;;5.28;;
23394;SDS011;11870;53.084;18.206;2023-02-03T05:56:11;14.07;;;5.35;;
23394;SDS011;11870;53.084;18.206;2023-02-03T05:58:37;11.18;;;5.22;;
23394;SDS011;11870;53.084;18.206;2023-02-03T06:01:04;13.93;;;5.93;;
23394;SDS011;11870;53.084;18.206;2023-02-03T06:03:30;14.50;;;6.40;;
23394;SDS011;11870;53.084;18.206;2023-02-03T06:05:56;20.42;;;7.30;;
23394;SDS011;11870;53.084;18.206;2023-02-03T06:08:23;14.93;;;7.03;;
23394;SDS011;11870;53.084;18.206;2023-02-03T06:10:56;16.58;;;7.25;;
23394;SDS011;11870;53.084;18.206;2023-02-03T06:13:23;12.07;;;5.90;;
23394;SDS011;11870;53.084;18.206;2023-02-03T06:15:50;13.82;;;6.38;;
23394;SDS011;11870;53.084;18.206;2023-02-03T06:18:16;19.95;;;8.32;;
23394;SDS011;11870;53.084;18.206;2023-02-03T06:20:43;17.40;;;8.25;;
23394;SDS011;11870;53.084;18.206;2023-02-03T06:23:09;22.02;;;9.52;;
23394;SDS011;11870;53.084;18.206;2023-02-03T06:25:36;22.98;;;9.77;;
23394;SDS011;11870;53.084;18.206;2023-02-03T06:28:02;24.67;;;8.32;;
23394;SDS011;11870;53.084;18.206;2023-02-03T06:30:28;16.52;;;7.93;;
23394;SDS011;11870;53.084;18.206;2023-02-03T06:32:55;20.80;;;9.45;;
23394;SDS011;11870;53.084;18.206;2023-02-03T06:35:21;19.77;;;9.13;;
23394;SDS011;11870;53.084;18.206;2023-02-03T06:37:47;30.80;;;10.18;;
23394;SDS011;11870;53.084;18.206;2023-02-03T06:40:14;18.50;;;9.00;;
23394;SDS011;11870;53.084;18.206;2023-02-03T06:42:43;20.83;;;9.18;;
23394;SDS011;11870;53.084;18.206;2023-02-03T06:45:11;20.30;;;9.68;;
23394;SDS011;11870;53.084;18.206;2023-02-03T06:47:41;21.08;;;8.73;;
23394;SDS011;11870;53.084;18.206;2023-02-03T06:50:08;23.92;;;9.27;;
23394;SDS011;11870;53.084;18.206;2023-02-03T06:52:45;21.15;;;8.55;;
23394;SDS011;11870;53.084;18.206;2023-02-03T06:55:14;21.42;;;9.20;;
23394;SDS011;11870;53.084;18.206;2023-02-03T06:57:43;20.70;;;8.35;;
23394;SDS011;11870;53.084;18.206;2023-02-03T07:00:11;18.05;;;7.93;;
23394;SDS011;11870;53.084;18.206;2023-02-03T07:02:39;11.35;;;5.75;;
23394;SDS011;11870;53.084;18.206;2023-02-03T07:05:05;20.40;;;8.63;;
23394;SDS011;11870;53.084;18.206;2023-02-03T07:07:32;20.30;;;7.78;;
23394;SDS011;11870;53.084;18.206;2023-02-03T07:09:59;21.48;;;8.82;;
23394;SDS011;11870;53.084;18.206;2023-02-03T07:12:25;20.02;;;8.70;;
23394;SDS011;11870;53.084;18.206;2023-02-03T07:14:52;20.52;;;8.27;;
23394;SDS011;11870;53.084;18.206;2023-02-03T07:17:18;18.95;;;8.43;;
23394;SDS011;11870;53.084;18.206;2023-02-03T07:19:45;20.08;;;8.95;;
23394;SDS011;11870;53.084;18.206;2023-02-03T07:22:11;18.42;;;8.18;;
23394;SDS011;11870;53.084;18.206;2023-02-03T07:24:38;22.70;;;8.88;;
23394;SDS011;11870;53.084;18.206;2023-02-03T07:27:04;16.58;;;7.40;;
23394;SDS011;11870;53.084;18.206;2023-02-03T07:29:30;20.13;;;8.02;;
23394;SDS011;11870;53.084;18.206;2023-02-03T07:31:57;20.15;;;7.63;;
23394;SDS011;11870;53.084;18.206;2023-02-03T07:34:23;25.15;;;8.18;;
23394;SDS011;11870;53.084;18.206;2023-02-03T07:36:49;17.63;;;8.20;;
23394;SDS011;11870;53.084;18.206;2023-02-03T07:39:16;17.25;;;7.53;;
23394;SDS011;11870;53.084;18.206;2023-02-03T07:41:42;22.02;;;8.02;;
23394;SDS011;11870;53.084;18.206;2023-02-03T07:44:08;17.55;;;7.43;;
23394;SDS011;11870;53.084;18.206;2023-02-03T07:46:35;20.35;;;8.18;;
23394;SDS011;11870;53.084;18.206;2023-02-03T07:49:05;15.02;;;7.05;;
23394;SDS011;11870;53.084;18.206;2023-02-03T07:51:32;16.42;;;7.20;;
23394;SDS011;11870;53.084;18.206;2023-02-03T07:53:58;17.70;;;6.68;;
23394;SDS011;11870;53.084;18.206;2023-02-03T07:56:24;15.90;;;7.85;;
23394;SDS011;11870;53.084;18.206;2023-02-03T07:58:51;14.00;;;6.95;;
23394;SDS011;11870;53.084;18.206;2023-02-03T08:01:17;15.23;;;7.25;;
23394;SDS011;11870;53.084;18.206;2023-02-03T08:03:43;16.23;;;6.95;;
23394;SDS011;11870;53.084;18.206;2023-02-03T08:06:10;14.50;;;7.35;;
23394;SDS011;11870;53.084;18.206;2023-02-03T08:08:36;19.48;;;7.30;;
23394;SDS011;11870;53.084;18.206;2023-02-03T08:11:03;14.25;;;6.95;;
23394;SDS011;11870;53.084;18.206;2023-02-03T08:13:29;21.25;;;7.68;;
23394;SDS011;11870;53.084;18.206;2023-02-03T08:15:55;15.25;;;6.75;;
23394;SDS011;11870;53.084;18.206;2023-02-03T08:18:22;20.05;;;7.72;;
23394;SDS011;11870;53.084;18.206;2023-02-03T08:20:48;19.88;;;6.55;;
23394;SDS011;11870;53.084;18.206;2023-02-03T08:23:14;17.50;;;7.70;;
23394;SDS011;11870;53.084;18.206;2023-02-03T08:25:41;19.77;;;7.95;;
23394;SDS011;11870;53.084;18.206;2023-02-03T08:28:07;18.38;;;7.43;;
23394;SDS011;11870;53.084;18.206;2023-02-03T08:30:34;14.32;;;6.65;;
23394;SDS011;11870;53.084;18.206;2023-02-03T08:33:00;19.67;;;8.30;;
23394;SDS011;11870;53.084;18.206;2023-02-03T08:35:26;20.67;;;7.68;;
23394;SDS011;11870;53.084;18.206;2023-02-03T08:37:53;19.00;;;8.23;;
23394;SDS011;11870;53.084;18.206;2023-02-03T08:40:19;20.50;;;8.40;;
23394;SDS011;11870;53.084;18.206;2023-02-03T08:42:46;25.50;;;8.65;;
23394;SDS011;11870;53.084;18.206;2023-02-03T08:45:12;21.70;;;9.60;;
23394;SDS011;11870;53.084;18.206;2023-02-03T08:47:38;18.00;;;9.65;;
23394;SDS011;11870;53.084;18.206;2023-02-03T08:50:06;26.30;;;9.98;;
23394;SDS011;11870;53.084;18.206;2023-02-03T08:52:33;28.40;;;11.38;;
23394;SDS011;11870;53.084;18.206;2023-02-03T08:54:58;33.10;;;12.07;;
23394;SDS011;11870;53.084;18.206;2023-02-03T08:57:25;28.75;;;12.55;;
23394;SDS011;11870;53.084;18.206;2023-02-03T08:59:51;26.33;;;12.60;;
23394;SDS011;11870;53.084;18.206;2023-02-03T09:02:18;29.50;;;13.35;;
23394;SDS011;11870;53.084;18.206;2023-02-03T09:04:44;30.88;;;12.70;;
23394;SDS011;11870;53.084;18.206;2023-02-03T09:07:12;24.83;;;12.25;;
23394;SDS011;11870;53.084;18.206;2023-02-03T09:09:38;29.63;;;12.00;;
23394;SDS011;11870;53.084;18.206;2023-02-03T09:12:05;23.45;;;10.65;;
23394;SDS011;11870;53.084;18.206;2023-02-03T09:14:31;24.42;;;10.45;;
23394;SDS011;11870;53.084;18.206;2023-02-03T09:16:59;19.88;;;8.32;;
23394;SDS011;11870;53.084;18.206;2023-02-03T09:19:25;20.08;;;9.20;;
23394;SDS011;11870;53.084;18.206;2023-02-03T09:21:52;16.25;;;7.43;;
23394;SDS011;11870;53.084;18.206;2023-02-03T09:24:18;24.10;;;8.48;;
23394;SDS011;11870;53.084;18.206;2023-02-03T09:26:45;19.50;;;8.35;;
23394;SDS011;11870;53.084;18.206;2023-02-03T09:29:11;16.70;;;8.90;;
23394;SDS011;11870;53.084;18.206;2023-02-03T09:31:37;16.48;;;7.55;;
23394;SDS011;11870;53.084;18.206;2023-02-03T09:34:04;16.15;;;7.57;;
23394;SDS011;11870;53.084;18.206;2023-02-03T09:36:30;21.83;;;10.20;;
23394;SDS011;11870;53.084;18.206;2023-02-03T09:38:56;20.73;;;9.98;;
23394;SDS011;11870;53.084;18.206;2023-02-03T09:41:28;26.23;;;10.80;;
23394;SDS011;11870;53.084;18.206;2023-02-03T09:46:43;25.92;;;11.57;;
23394;SDS011;11870;53.084;18.206;2023-02-03T09:51:41;34.75;;;16.23;;
23394;SDS011;11870;53.084;18.206;2023-02-03T09:57:13;50.10;;;20.17;;
23394;SDS011;11870;53.084;18.206;2023-02-03T09:59:43;40.95;;;17.95;;
23394;SDS011;11870;53.084;18.206;2023-02-03T10:05:03;45.40;;;18.38;;
23394;SDS011;11870;53.084;18.206;2023-02-03T10:08:00;41.67;;;17.13;;
23394;SDS011;11870;53.084;18.206;2023-02-03T10:10:40;36.10;;;15.23;;
23394;SDS011;11870;53.084;18.206;2023-02-03T10:13:17;37.15;;;14.90;;
23394;SDS011;11870;53.084;18.206;2023-02-03T10:18:38;38.35;;;13.82;;
23394;SDS011;11870;53.084;18.206;2023-02-03T10:21:16;23.60;;;11.00;;
23394;SDS011;11870;53.084;18.206;2023-02-03T10:23:52;41.35;;;15.98;;
23394;SDS011;11870;53.084;18.206;2023-02-03T10:26:22;36.00;;;13.60;;
23394;SDS011;11870;53.084;18.206;2023-02-03T10:29:14;25.58;;;11.80;;
23394;SDS011;11870;53.084;18.206;2023-02-03T10:32:02;21.00;;;9.35;;
23394;SDS011;11870;53.084;18.206;2023-02-03T10:34:29;26.13;;;11.48;;
23394;SDS011;11870;53.084;18.206;2023-02-03T10:37:04;30.13;;;13.60;;
23394;SDS011;11870;53.084;18.206;2023-02-03T10:39:47;25.83;;;10.85;;
23394;SDS011;11870;53.084;18.206;2023-02-03T10:42:14;26.02;;;11.60;;
23394;SDS011;11870;53.084;18.206;2023-02-03T10:44:46;20.58;;;8.88;;
23394;SDS011;11870;53.084;18.206;2023-02-03T10:47:31;13.63;;;7.00;;
23394;SDS011;11870;53.084;18.206;2023-02-03T10:50:05;31.65;;;14.20;;
23394;SDS011;11870;53.084;18.206;2023-02-03T10:52:33;7.95;;;3.95;;
23394;SDS011;11870;53.084;18.206;2023-02-03T10:55:04;25.65;;;11.13;;
23394;SDS011;11870;53.084;18.206;2023-02-03T10:57:34;27.33;;;11.63;;
23394;SDS011;11870;53.084;18.206;2023-02-03T11:02:42;16.02;;;7.93;;
23394;SDS011;11870;53.084;18.206;2023-02-03T11:05:10;18.80;;;9.25;;
23394;SDS011;11870;53.084;18.206;2023-02-03T11:07:49;10.80;;;4.72;;
23394;SDS011;11870;53.084;18.206;2023-02-03T11:15:50;15.43;;;7.90;;
23394;SDS011;11870;53.084;18.206;2023-02-03T11:27:00;22.88;;;10.48;;
23394;SDS011;11870;53.084;18.206;2023-02-03T11:29:35;18.33;;;8.52;;
23394;SDS011;11870;53.084;18.206;2023-02-03T11:32:04;9.90;;;4.93;;
23394;SDS011;11870;53.084;18.206;2023-02-03T11:34:48;16.55;;;6.65;;
23394;SDS011;11870;53.084;18.206;2023-02-03T11:42:37;11.88;;;6.55;;
23394;SDS011;11870;53.084;18.206;2023-02-03T11:45:13;13.85;;;5.78;;
23394;SDS011;11870;53.084;18.206;2023-02-03T11:47:43;16.15;;;8.20;;
23394;SDS011;11870;53.084;18.206;2023-02-03T11:50:17;17.50;;;8.48;;
23394;SDS011;11870;53.084;18.206;2023-02-03T11:52:55;12.38;;;6.43;;
23394;SDS011;11870;53.084;18.206;2023-02-03T11:58:00;24.25;;;9.75;;
23394;SDS011;11870;53.084;18.206;2023-02-03T12:09:01;17.15;;;7.72;;
23394;SDS011;11870;53.084;18.206;2023-02-03T12:11:33;17.40;;;7.65;;
23394;SDS011;11870;53.084;18.206;2023-02-03T12:28:02;17.63;;;8.00;;
23394;SDS011;11870;53.084;18.206;2023-02-03T12:30:43;9.63;;;3.95;;
23394;SDS011;11870;53.084;18.206;2023-02-03T12:33:17;16.55;;;8.30;;
23394;SDS011;11870;53.084;18.206;2023-02-03T12:35:50;15.30;;;7.03;;
23394;SDS011;11870;53.084;18.206;2023-02-03T12:38:41;13.43;;;5.78;;
23394;SDS011;11870;53.084;18.206;2023-02-03T12:41:37;15.38;;;5.93;;
23394;SDS011;11870;53.084;18.206;2023-02-03T12:44:15;13.85;;;7.25;;
23394;SDS011;11870;53.084;18.206;2023-02-03T12:49:57;35.95;;;12.90;;
23394;SDS011;11870;53.084;18.206;2023-02-03T12:58:04;19.55;;;7.45;;
23394;SDS011;11870;53.084;18.206;2023-02-03T13:00:51;11.52;;;4.78;;
23394;SDS011;11870;53.084;18.206;2023-02-03T13:03:27;25.08;;;9.52;;
23394;SDS011;11870;53.084;18.206;2023-02-03T13:06:16;24.25;;;8.82;;
23394;SDS011;11870;53.084;18.206;2023-02-03T13:11:33;21.13;;;7.50;;
23394;SDS011;11870;53.084;18.206;2023-02-03T13:16:57;13.23;;;6.38;;
23394;SDS011;11870;53.084;18.206;2023-02-03T13:19:31;14.02;;;6.55;;
23394;SDS011;11870;53.084;18.206;2023-02-03T13:22:13;19.02;;;8.05;;
23394;SDS011;11870;53.084;18.206;2023-02-03T13:24:42;15.77;;;8.05;;
23394;SDS011;11870;53.084;18.206;2023-02-03T13:27:54;17.98;;;8.27;;
23394;SDS011;11870;53.084;18.206;2023-02-03T13:41:03;26.83;;;11.30;;
23394;SDS011;11870;53.084;18.206;2023-02-03T13:43:33;29.17;;;12.32;;
23394;SDS011;11870;53.084;18.206;2023-02-03T13:46:01;26.15;;;11.40;;
23394;SDS011;11870;53.084;18.206;2023-02-03T13:48:29;21.65;;;10.80;;
23394;SDS011;11870;53.084;18.206;2023-02-03T13:51:13;21.05;;;10.73;;
23394;SDS011;11870;53.084;18.206;2023-02-03T13:53:44;22.98;;;9.48;;
23394;SDS011;11870;53.084;18.206;2023-02-03T13:56:20;22.42;;;10.68;;
23394;SDS011;11870;53.084;18.206;2023-02-03T13:58:59;25.90;;;11.27;;
23394;SDS011;11870;53.084;18.206;2023-02-03T14:03:55;22.80;;;10.32;;
23394;SDS011;11870;53.084;18.206;2023-02-03T14:12:15;24.52;;;11.10;;
23394;SDS011;11870;53.084;18.206;2023-02-03T14:20:49;26.80;;;11.05;;
23394;SDS011;11870;53.084;18.206;2023-02-03T14:23:08;24.23;;;9.68;;
23394;SDS011;11870;53.084;18.206;2023-02-03T14:25:44;26.33;;;10.43;;
23394;SDS011;11870;53.084;18.206;2023-02-03T14:28:15;45.72;;;17.67;;
23394;SDS011;11870;53.084;18.206;2023-02-03T14:36:26;78.38;;;28.92;;
23394;SDS011;11870;53.084;18.206;2023-02-03T14:38:53;75.63;;;27.08;;
23394;SDS011;11870;53.084;18.206;2023-02-03T14:41:40;53.13;;;21.60;;
23394;SDS011;11870;53.084;18.206;2023-02-03T14:46:57;76.93;;;27.25;;
23394;SDS011;11870;53.084;18.206;2023-02-03T14:49:50;58.00;;;22.52;;
23394;SDS011;11870;53.084;18.206;2023-02-03T14:58:21;69.13;;;26.27;;
23394;SDS011;11870;53.084;18.206;2023-02-03T15:00:55;69.18;;;24.70;;
23394;SDS011;11870;53.084;18.206;2023-02-03T15:03:23;72.38;;;25.10;;
23394;SDS011;11870;53.084;18.206;2023-02-03T15:05:51;77.68;;;26.48;;
23394;SDS011;11870;53.084;18.206;2023-02-03T15:10:57;47.55;;;19.25;;
23394;SDS011;11870;53.084;18.206;2023-02-03T15:13:28;53.05;;;19.45;;
23394;SDS011;11870;53.084;18.206;2023-02-03T15:15:56;41.97;;;17.38;;
23394;SDS011;11870;53.084;18.206;2023-02-03T15:18:33;35.67;;;15.23;;
23394;SDS011;11870;53.084;18.206;2023-02-03T15:21:02;39.13;;;15.60;;
23394;SDS011;11870;53.084;18.206;2023-02-03T15:23:35;30.90;;;12.27;;
23394;SDS011;11870;53.084;18.206;2023-02-03T15:28:52;26.52;;;11.00;;
23394;SDS011;11870;53.084;18.206;2023-02-03T15:31:41;22.40;;;10.50;;
23394;SDS011;11870;53.084;18.206;2023-02-03T15:34:30;27.60;;;10.85;;
23394;SDS011;11870;53.084;18.206;2023-02-03T15:37:03;24.80;;;11.10;;
23394;SDS011;11870;53.084;18.206;2023-02-03T15:40:03;29.38;;;11.88;;
23394;SDS011;11870;53.084;18.206;2023-02-03T15:42:57;31.48;;;12.32;;
23394;SDS011;11870;53.084;18.206;2023-02-03T15:45:26;33.78;;;12.57;;
23394;SDS011;11870;53.084;18.206;2023-02-03T15:47:57;29.80;;;12.23;;
23394;SDS011;11870;53.084;18.206;2023-02-03T15:50:44;23.10;;;10.38;;
23394;SDS011;11870;53.084;18.206;2023-02-03T15:53:22;23.45;;;10.60;;
23394;SDS011;11870;53.084;18.206;2023-02-03T15:55:53;27.85;;;11.07;;
23394;SDS011;11870;53.084;18.206;2023-02-03T15:58:26;24.73;;;10.52;;
23394;SDS011;11870;53.084;18.206;2023-02-03T16:00:55;23.85;;;10.98;;
23394;SDS011;11870;53.084;18.206;2023-02-03T16:03:32;24.55;;;10.18;;
23394;SDS011;11870;53.084;18.206;2023-02-03T16:08:52;24.38;;;10.13;;
23394;SDS011;11870;53.084;18.206;2023-02-03T16:11:32;20.15;;;9.57;;
23394;SDS011;11870;53.084;18.206;2023-02-03T16:14:01;25.00;;;10.70;;
23394;SDS011;11870;53.084;18.206;2023-02-03T16:16:44;42.13;;;11.13;;
23394;SDS011;11870;53.084;18.206;2023-02-03T16:19:20;27.50;;;10.20;;
23394;SDS011;11870;53.084;18.206;2023-02-03T16:32:57;24.80;;;9.57;;
23394;SDS011;11870;53.084;18.206;2023-02-03T16:35:54;25.52;;;9.32;;
23394;SDS011;11870;53.084;18.206;2023-02-03T16:38:46;29.00;;;9.32;;
23394;SDS011;11870;53.084;18.206;2023-02-03T16:41:31;31.08;;;10.60;;
23394;SDS011;11870;53.084;18.206;2023-02-03T16:44:17;33.55;;;11.48;;
23394;SDS011;11870;53.084;18.206;2023-02-03T16:47:02;37.20;;;11.63;;
23394;SDS011;11870;53.084;18.206;2023-02-03T16:49:47;38.45;;;10.38;;
23394;SDS011;11870;53.084;18.206;2023-02-03T16:52:32;30.63;;;9.50;;
23394;SDS011;11870;53.084;18.206;2023-02-03T16:54:58;31.17;;;9.00;;
23394;SDS011;11870;53.084;18.206;2023-02-03T16:57:25;31.02;;;7.88;;
23394;SDS011;11870;53.084;18.206;2023-02-03T16:59:51;24.35;;;7.57;;
23394;SDS011;11870;53.084;18.206;2023-02-03T17:02:17;31.48;;;7.60;;
23394;SDS011;11870;53.084;18.206;2023-02-03T17:04:44;30.48;;;7.20;;
23394;SDS011;11870;53.084;18.206;2023-02-03T17:07:10;23.70;;;6.25;;
23394;SDS011;11870;53.084;18.206;2023-02-03T17:09:36;22.98;;;6.55;;
23394;SDS011;11870;53.084;18.206;2023-02-03T17:12:03;23.98;;;6.15;;
23394;SDS011;11870;53.084;18.206;2023-02-03T17:14:29;19.85;;;5.30;;